Aviation Digital Data Service (ADDS)

Output produced by METARs form (0007 UTC 26 June 2017)
found at http://aviationweather.gov/adds/metars/
 
KDCA 252320Z 2600/2624 31008G16KT P6SM FEW200 
     FM260100 32005KT P6SM FEW200 
     FM260600 VRB03KT P6SM FEW200 
     FM261500 27008G16KT P6SM SCT070 
     FM261900 24008G16KT P6SM SCT070